Time;durP1;ratioP1;P1;durP2;ratioP2;P2;SDS_P1;SDS_P2;PMS_P1;PMS_P2;Temp;Humidity;BMP_temperature;BMP_pressure;BME280_temperature;BME280_humidity;BME280_pressure;Samples;Min_cycle;Max_cycle;Signal;HPM_P1;HPM_P2
2023/02/28 00:01:30;;;;;;;;;22.25;20.25;;;;;-147.17;100.00;-9221.53;5026052;28;51232;-47
2023/02/28 00:03:55;;;;;;;;;22.25;20.00;;;;;-147.17;100.00;-9221.53;5022455;28;51256;-47
2023/02/28 00:06:21;;;;;;;;;18.00;16.75;;;;;-147.17;100.00;-9469.69;5024085;28;51330;-48
2023/02/28 00:08:47;;;;;;;;;21.50;20.00;;;;;-147.17;100.00;-9965.91;5032887;28;51763;-48
2023/02/28 00:11:14;;;;;;;;;20.75;20.00;;;;;-147.17;100.00;-10214.00;5017683;28;51124;-48
2023/02/28 00:13:46;;;;;;;;;21.00;17.50;;;;;-147.17;100.00;-10214.00;5026700;28;50931;-46
2023/02/28 00:16:14;;;;;;;;;23.25;20.75;;;;;-147.17;100.00;-10462.09;4997966;28;51190;-48
2023/02/28 00:18:40;;;;;;;;;22.75;21.50;;;;;-147.17;100.00;-10462.09;4996410;28;51925;-49
2023/02/28 00:21:06;;;;;;;;;26.75;23.50;;;;;-147.17;100.00;-10462.09;5016639;28;50987;-48
2023/02/28 00:23:32;;;;;;;;;18.00;16.25;;;;;-147.17;100.00;-10462.09;5024587;28;51771;-48
2023/02/28 00:25:57;;;;;;;;;25.75;24.25;;;;;-147.17;100.00;-10710.16;5014572;28;51130;-47
2023/02/28 00:28:24;;;;;;;;;23.50;22.25;;;;;-147.17;100.00;-10710.16;5016599;28;52399;-47
2023/02/28 00:30:49;;;;;;;;;20.00;18.25;;;;;-147.17;100.00;-10958.19;5020406;28;51038;-50
2023/02/28 00:33:15;;;;;;;;;22.25;19.75;;;;;-147.17;100.00;-11206.22;5001167;28;51341;-48
2023/02/28 00:35:41;;;;;;;;;26.50;23.50;;;;;-147.17;100.00;-11454.25;5030328;28;51327;-47
2023/02/28 00:38:06;;;;;;;;;25.25;23.00;;;;;-147.17;100.00;-11206.22;5026768;28;52046;-46
2023/02/28 00:40:32;;;;;;;;;20.25;19.75;;;;;-147.17;100.00;-11454.25;5033281;28;50927;-48
2023/02/28 00:42:57;;;;;;;;;17.25;17.00;;;;;-147.17;100.00;-11206.22;5020788;28;51178;-50
2023/02/28 00:45:23;;;;;;;;;20.75;19.00;;;;;-147.17;100.00;-11206.22;5022544;28;51292;-46
2023/02/28 00:47:49;;;;;;;;;20.50;19.75;;;;;-147.17;100.00;-11454.25;5017765;28;51778;-48
2023/02/28 00:50:17;;;;;;;;;22.50;20.75;;;;;-147.17;100.00;-11702.25;5013582;28;51186;-48
2023/02/28 00:52:42;;;;;;;;;20.50;19.00;;;;;-147.17;100.00;-11702.25;5030147;28;51180;-51
2023/02/28 00:55:08;;;;;;;;;19.00;17.00;;;;;-147.17;100.00;-11454.25;5023466;28;51121;-49
2023/02/28 00:57:33;;;;;;;;;22.00;19.75;;;;;-147.17;100.00;-11454.25;5020791;28;51694;-48
2023/02/28 00:59:59;;;;;;;;;18.50;16.00;;;;;-147.17;100.00;-11454.25;5016105;28;51088;-50
2023/02/28 01:02:24;;;;;;;;;19.00;19.00;;;;;-147.17;100.00;-11454.25;5019973;28;51341;-49
2023/02/28 01:04:49;;;;;;;;;20.25;18.75;;;;;-147.17;100.00;-11454.25;5027942;28;51213;-50
2023/02/28 01:07:15;;;;;;;;;15.00;13.25;;;;;-147.17;100.00;-11454.25;5017827;28;51874;-47
2023/02/28 01:09:41;;;;;;;;;25.00;22.00;;;;;-147.17;100.00;-11454.25;5022382;28;51143;-48
2023/02/28 01:12:08;;;;;;;;;21.50;20.75;;;;;-147.17;100.00;-11454.25;5016280;28;51071;-48
2023/02/28 01:14:34;;;;;;;;;24.50;23.00;;;;;-147.17;100.00;-11702.25;5015980;28;51153;-47
2023/02/28 01:17:00;;;;;;;;;19.75;17.75;;;;;-147.17;100.00;-11454.25;5028657;28;51660;-47
2023/02/28 01:19:25;;;;;;;;;16.00;16.00;;;;;-147.17;100.00;-11454.25;5030873;28;51509;-47
2023/02/28 01:21:51;;;;;;;;;21.75;19.00;;;;;-147.17;100.00;-11454.25;5017059;28;51359;-47
2023/02/28 01:24:16;;;;;;;;;21.50;20.00;;;;;-147.17;100.00;-11454.25;5013856;28;51024;-47
2023/02/28 01:26:42;;;;;;;;;19.75;18.75;;;;;-147.17;100.00;-11454.25;5022005;28;51663;-47
2023/02/28 01:29:07;;;;;;;;;19.50;18.50;;;;;-147.17;100.00;-11206.22;5020471;28;51432;-48
2023/02/28 01:31:32;;;;;;;;;14.50;14.00;;;;;-147.17;100.00;-11454.25;5003273;28;51919;-50
2023/02/28 01:33:58;;;;;;;;;15.00;15.00;;;;;-147.17;100.00;-11950.22;5012710;28;51412;-47
2023/02/28 01:36:24;;;;;;;;;17.50;17.00;;;;;-147.17;100.00;-11950.22;5018029;28;51120;-47
2023/02/28 01:38:50;;;;;;;;;15.75;15.50;;;;;-147.17;100.00;-11950.22;5031590;28;51016;-47
2023/02/28 01:41:27;;;;;;;;;16.75;16.75;;;;;-147.17;100.00;-11950.22;5013059;28;51113;-47
2023/02/28 01:43:52;;;;;;;;;18.00;15.75;;;;;-147.17;100.00;-11950.22;5015592;28;51034;-48
2023/02/28 01:46:18;;;;;;;;;22.75;20.75;;;;;-147.17;100.00;-12198.19;5012213;28;51268;-48
2023/02/28 01:48:46;;;;;;;;;19.75;19.00;;;;;-147.17;100.00;-12198.19;5018215;28;51132;-49
2023/02/28 01:51:20;;;;;;;;;12.50;12.00;;;;;-147.17;100.00;-12446.13;5020662;28;51101;-49
2023/02/28 01:53:52;;;;;;;;;18.75;17.25;;;;;-147.17;100.00;-12446.13;5027576;28;51472;-50
2023/02/28 01:56:23;;;;;;;;;17.75;16.25;;;;;-147.17;100.00;-12694.06;5030909;28;51156;-49
2023/02/28 01:58:51;;;;;;;;;21.25;19.50;;;;;-147.17;100.00;-12694.06;5020197;28;51108;-49
2023/02/28 02:01:21;;;;;;;;;22.75;20.50;;;;;-147.17;100.00;-12941.97;5011596;28;50967;-49
2023/02/28 02:03:54;;;;;;;;;13.75;13.75;;;;;-147.17;100.00;-12941.97;5026714;28;51391;-50
2023/02/28 02:06:21;;;;;;;;;10.00;8.00;;;;;-147.17;100.00;-12941.97;5003615;28;51831;-50
2023/02/28 02:08:46;;;;;;;;;22.50;19.25;;;;;-147.17;100.00;-12941.97;5025990;28;51077;-48
2023/02/28 02:11:13;;;;;;;;;24.50;23.75;;;;;-147.17;100.00;-12941.97;5020110;28;51076;-49
2023/02/28 02:14:03;;;;;;;;;17.75;17.25;;;;;-147.17;100.00;-12694.06;5015476;28;51141;-49
2023/02/28 02:16:41;;;;;;;;;14.00;14.00;;;;;-147.17;100.00;-12694.06;5014967;28;51947;-48
2023/02/28 02:19:42;;;;;;;;;15.25;14.50;;;;;-147.17;100.00;-12694.06;5012028;28;51188;-49
2023/02/28 02:22:44;;;;;;;;;25.75;19.00;;;;;-147.17;100.00;-12941.97;5023341;28;51027;-50
2023/02/28 02:25:36;;;;;;;;;25.25;20.50;;;;;-147.17;100.00;-12941.97;5020524;28;50991;-47
2023/02/28 02:28:26;;;;;;;;;18.50;17.25;;;;;-147.17;100.00;-13189.88;5023633;28;51909;-49
2023/02/28 02:31:05;;;;;;;;;21.25;20.50;;;;;-147.17;100.00;-12941.97;5024184;28;50821;-49
2023/02/28 02:33:51;;;;;;;;;18.00;17.00;;;;;-147.17;100.00;-13189.88;5007465;28;51286;-53
2023/02/28 02:36:51;;;;;;;;;16.75;16.00;;;;;-147.17;100.00;-12941.97;5012602;28;51260;-49
2023/02/28 02:39:30;;;;;;;;;18.00;16.25;;;;;-147.17;100.00;-12941.97;5013732;28;51279;-50
2023/02/28 02:42:01;;;;;;;;;16.00;16.00;;;;;-147.17;100.00;-12941.97;5017631;28;51102;-49
2023/02/28 02:44:28;;;;;;;;;21.75;21.00;;;;;-147.17;100.00;-12941.97;5027088;28;50984;-50
2023/02/28 02:46:58;;;;;;;;;22.00;18.00;;;;;-147.17;100.00;-12694.06;5015885;28;51293;-49
2023/02/28 02:49:32;;;;;;;;;7.75;7.75;;;;;-147.17;100.00;-12694.06;5021439;28;51155;-49
2023/02/28 02:52:04;;;;;;;;;18.75;17.50;;;;;-147.17;100.00;-12694.06;5024609;28;50911;-47
2023/02/28 02:54:40;;;;;;;;;20.75;18.00;;;;;-147.17;100.00;-12694.06;5012569;28;51072;-49
2023/02/28 02:57:15;;;;;;;;;18.25;17.50;;;;;-147.17;100.00;-12694.06;5014070;28;51722;-49
2023/02/28 02:59:42;;;;;;;;;19.00;17.50;;;;;-147.17;100.00;-12446.13;5024730;28;52420;-49
2023/02/28 03:02:12;;;;;;;;;19.50;19.50;;;;;-147.17;100.00;-12446.13;5030842;28;51113;-49
2023/02/28 03:04:50;;;;;;;;;13.00;12.25;;;;;-147.17;100.00;-12446.13;5029661;28;51248;-50
2023/02/28 03:07:15;;;;;;;;;18.00;17.50;;;;;-147.17;100.00;-12198.19;5033250;28;51224;-45
2023/02/28 03:09:49;;;;;;;;;11.75;11.00;;;;;-147.17;100.00;-12198.19;5018295;28;51270;-48
2023/02/28 03:12:15;;;;;;;;;16.50;16.50;;;;;-147.17;100.00;-11702.25;5031930;28;51181;-47
2023/02/28 03:14:53;;;;;;;;;19.00;13.75;;;;;-147.17;100.00;-11702.25;5016672;28;51418;-49
2023/02/28 03:17:33;;;;;;;;;15.75;15.50;;;;;-147.17;100.00;-11454.25;5023089;28;51282;-48
2023/02/28 03:20:08;;;;;;;;;14.75;12.00;;;;;-147.17;100.00;-11454.25;5023914;28;51752;-47
2023/02/28 03:22:49;;;;;;;;;14.25;14.25;;;;;-147.17;100.00;-11454.25;5029150;28;51449;-49
2023/02/28 03:25:20;;;;;;;;;14.00;13.50;;;;;-147.17;100.00;-11454.25;5025215;28;51170;-50
2023/02/28 03:28:05;;;;;;;;;18.25;16.00;;;;;-147.17;100.00;-11454.25;5015798;28;51097;-48
2023/02/28 03:30:53;;;;;;;;;15.00;13.25;;;;;-147.17;100.00;-11454.25;5016257;28;52055;-49
2023/02/28 03:33:27;;;;;;;;;15.00;15.00;;;;;-147.17;100.00;-11206.22;5023866;28;51249;-49
2023/02/28 03:36:12;;;;;;;;;11.25;11.25;;;;;-147.17;100.00;-11206.22;5015716;28;50962;-49
2023/02/28 03:39:02;;;;;;;;;12.75;12.25;;;;;-147.17;100.00;-10958.19;5020235;28;51104;-50
2023/02/28 03:41:41;;;;;;;;;17.75;13.75;;;;;-147.17;100.00;-10958.19;5010030;28;52319;-50
2023/02/28 03:44:15;;;;;;;;;14.25;13.00;;;;;-147.17;100.00;-10958.19;5018428;28;51142;-48
2023/02/28 03:46:49;;;;;;;;;11.75;11.25;;;;;-147.17;100.00;-10958.19;5030710;28;51109;-48
2023/02/28 03:49:22;;;;;;;;;12.25;12.25;;;;;-147.17;100.00;-10958.19;5019664;28;51491;-48
2023/02/28 03:51:51;;;;;;;;;17.75;15.50;;;;;-147.17;100.00;-10958.19;5014176;28;51235;-48
2023/02/28 03:54:23;;;;;;;;;16.50;15.00;;;;;-147.17;100.00;-10710.16;5015155;28;51149;-48
2023/02/28 03:56:54;;;;;;;;;12.25;12.25;;;;;-147.17;100.00;-10462.09;5017666;28;51083;-49
2023/02/28 03:59:23;;;;;;;;;9.50;7.00;;;;;-147.17;100.00;-10462.09;5025715;28;51011;-48
2023/02/28 04:01:49;;;;;;;;;17.50;17.50;;;;;-147.17;100.00;-10462.09;5021742;28;51753;-47
2023/02/28 04:04:16;;;;;;;;;15.50;12.00;;;;;-147.17;100.00;-10462.09;5024336;28;50979;-48
2023/02/28 04:06:43;;;;;;;;;13.25;13.25;;;;;-147.17;100.00;-10462.09;5030831;28;51073;-49
2023/02/28 04:09:13;;;;;;;;;15.25;13.75;;;;;-147.17;100.00;-10710.16;5019665;28;51140;-48
2023/02/28 04:11:41;;;;;;;;;12.75;12.75;;;;;-147.17;100.00;-10710.16;5022181;28;51879;-48
2023/02/28 04:14:08;;;;;;;;;1.50;1.50;;;;;-147.17;100.00;-10462.09;5028501;28;51173;-49
2023/02/28 04:16:36;;;;;;;;;16.00;12.50;;;;;-147.17;100.00;-10710.16;5023327;28;51209;-50
2023/02/28 04:19:04;;;;;;;;;17.75;15.50;;;;;-147.17;100.00;-10462.09;5028502;28;50986;-48
2023/02/28 04:21:31;;;;;;;;;17.00;14.00;;;;;-147.17;100.00;-10462.09;5027117;28;52750;-48
2023/02/28 04:24:00;;;;;;;;;13.25;13.00;;;;;-147.17;100.00;-10462.09;5032866;28;51245;-48
2023/02/28 04:26:36;;;;;;;;;15.75;13.75;;;;;-147.17;100.00;-10710.16;5025767;28;51511;-48
2023/02/28 04:29:04;;;;;;;;;17.25;17.00;;;;;-147.17;100.00;-10958.19;5029762;28;50961;-48
2023/02/28 04:31:29;;;;;;;;;13.75;12.25;;;;;-147.17;100.00;-10958.19;5029524;28;50976;-48
2023/02/28 04:33:55;;;;;;;;;13.50;13.00;;;;;-147.17;100.00;-10958.19;5015686;28;51009;-48
2023/02/28 04:36:20;;;;;;;;;16.00;15.25;;;;;-147.17;100.00;-11206.22;5015012;28;51247;-49
2023/02/28 04:38:46;;;;;;;;;17.75;16.50;;;;;-147.17;100.00;-11206.22;5018041;28;51067;-48
2023/02/28 04:41:15;;;;;;;;;15.25;12.75;;;;;-147.17;100.00;-11206.22;5030920;28;53309;-48
2023/02/28 04:43:43;;;;;;;;;15.50;14.75;;;;;-147.17;100.00;-11454.25;5022413;28;51026;-48
2023/02/28 04:46:12;;;;;;;;;19.00;18.00;;;;;-147.17;100.00;-11702.25;5031932;28;51113;-47
2023/02/28 04:48:39;;;;;;;;;17.50;15.50;;;;;-147.17;100.00;-11702.25;5030397;28;51173;-48
2023/02/28 04:51:06;;;;;;;;;18.75;15.25;;;;;-147.17;100.00;-11950.22;5030197;28;51918;-49
2023/02/28 04:53:32;;;;;;;;;16.50;16.25;;;;;-147.17;100.00;-11950.22;5018341;28;51688;-47
2023/02/28 04:55:58;;;;;;;;;17.50;17.50;;;;;-147.17;100.00;-12198.19;5027342;28;51105;-49
2023/02/28 04:58:24;;;;;;;;;18.00;15.25;;;;;-147.17;100.00;-12198.19;5019470;28;51359;-48
2023/02/28 05:00:51;;;;;;;;;14.25;14.25;;;;;-147.17;100.00;-12446.13;5023090;28;51717;-47
2023/02/28 05:03:16;;;;;;;;;19.25;15.25;;;;;-147.17;100.00;-12446.13;5017326;28;51364;-47
2023/02/28 05:05:42;;;;;;;;;12.00;11.00;;;;;-147.17;100.00;-12446.13;5014334;28;50962;-50
2023/02/28 05:08:07;;;;;;;;;14.25;13.25;;;;;-147.17;100.00;-12446.13;5014387;28;51234;-48
2023/02/28 05:10:32;;;;;;;;;14.25;14.00;;;;;-147.17;100.00;-12446.13;5027014;28;52963;-47
2023/02/28 05:12:58;;;;;;;;;17.25;15.75;;;;;-147.17;100.00;-12446.13;5018004;28;51205;-50
2023/02/28 05:15:24;;;;;;;;;14.50;12.75;;;;;-147.17;100.00;-12941.97;5034034;28;51186;-48
2023/02/28 05:17:50;;;;;;;;;15.00;13.75;;;;;-147.17;100.00;-12694.06;5017963;28;51237;-48
2023/02/28 05:20:16;;;;;;;;;18.50;17.50;;;;;-147.17;100.00;-12694.06;5026542;28;51067;-48
2023/02/28 05:22:42;;;;;;;;;7.00;6.75;;;;;-147.17;100.00;-12694.06;5013368;28;50999;-48
2023/02/28 05:25:12;;;;;;;;;15.75;12.50;;;;;-147.17;100.00;-12694.06;5014141;28;50987;-47
2023/02/28 05:27:37;;;;;;;;;15.25;14.25;;;;;-147.17;100.00;-12941.97;5023661;28;51170;-47
2023/02/28 05:30:04;;;;;;;;;12.50;12.00;;;;;-147.17;100.00;-12941.97;5013029;28;51917;-48
2023/02/28 05:32:29;;;;;;;;;20.00;18.25;;;;;-147.17;100.00;-12941.97;5028074;28;51326;-49
2023/02/28 05:34:55;;;;;;;;;17.50;16.25;;;;;-147.17;100.00;-12694.06;5013643;28;51106;-48
2023/02/28 05:37:20;;;;;;;;;21.25;18.25;;;;;-147.17;100.00;-12694.06;5019996;28;50995;-48
2023/02/28 05:39:46;;;;;;;;;17.25;16.00;;;;;-147.17;100.00;-12941.97;5031933;28;51647;-49
2023/02/28 05:42:12;;;;;;;;;15.75;15.50;;;;;-147.17;100.00;-13189.88;5031388;28;51221;-49
2023/02/28 05:44:37;;;;;;;;;17.00;15.50;;;;;-147.17;100.00;-13437.75;5031713;28;51080;-50
2023/02/28 05:47:03;;;;;;;;;20.25;16.25;;;;;-147.17;100.00;-13685.63;5024456;28;51981;-49
2023/02/28 05:49:28;;;;;;;;;17.25;15.00;;;;;-147.17;100.00;-13685.63;5012747;28;52281;-48
2023/02/28 05:51:54;;;;;;;;;20.25;18.50;;;;;-147.17;100.00;-13933.50;5013486;28;51267;-49
2023/02/28 05:54:19;;;;;;;;;21.75;18.50;;;;;-147.17;100.00;-14181.31;5013050;28;51084;-48
2023/02/28 05:56:45;;;;;;;;;22.00;20.50;;;;;-147.17;100.00;-14429.16;5022496;28;51018;-48
2023/02/28 05:59:14;;;;;;;;;19.00;18.75;;;;;-147.17;100.00;-14429.16;5032965;28;52630;-48
2023/02/28 06:01:47;;;;;;;;;19.50;18.00;;;;;-147.17;100.00;-14676.94;5015693;28;51157;-48
2023/02/28 06:04:17;;;;;;;;;18.75;16.75;;;;;-147.17;100.00;-14924.75;5031570;28;50927;-49
2023/02/28 06:06:43;;;;;;;;;24.00;22.50;;;;;-147.17;100.00;-15172.50;5031189;28;50991;-49
2023/02/28 06:09:08;;;;;;;;;23.50;21.50;;;;;-147.17;100.00;-15172.50;5032971;28;52443;-48
2023/02/28 06:11:34;;;;;;;;;28.00;25.00;;;;;-147.17;100.00;-15420.25;5028628;28;50970;-48
2023/02/28 06:14:00;;;;;;;;;27.75;21.75;;;;;-147.17;100.00;-15668.00;5012451;28;51354;-47
2023/02/28 06:16:27;;;;;;;;;31.75;26.75;;;;;-147.17;100.00;-15915.72;5007030;28;51268;-49
2023/02/28 06:18:55;;;;;;;;;27.00;25.00;;;;;-147.17;100.00;-15915.72;4994584;28;51866;-48
2023/02/28 06:21:21;;;;;;;;;25.25;25.25;;;;;-147.17;100.00;-15915.72;5015932;28;51158;-50
2023/02/28 06:23:46;;;;;;;;;32.50;30.00;;;;;-147.17;100.00;-15917.19;5018586;28;51089;-49
2023/02/28 06:26:12;;;;;;;;;27.75;25.00;;;;;-147.17;100.00;-15917.19;5016288;28;51029;-50
2023/02/28 06:28:37;;;;;;;;;21.75;19.25;;;;;-147.17;100.00;-15917.19;5013602;28;51736;-49
2023/02/28 06:31:11;;;;;;;;;21.75;21.00;;;;;-147.17;100.00;-15917.19;5031364;28;51015;-49
2023/02/28 06:33:38;;;;;;;;;24.75;23.75;;;;;-147.17;100.00;-15917.19;5027367;28;51006;-48
2023/02/28 06:36:05;;;;;;;;;28.75;28.25;;;;;-147.17;100.00;-15917.19;5032166;28;50925;-49
2023/02/28 06:38:31;;;;;;;;;29.75;26.25;;;;;-147.17;100.00;-15917.19;5023041;28;51098;-49
2023/02/28 06:40:58;;;;;;;;;31.75;29.00;;;;;-147.17;100.00;-15917.19;5019239;28;51288;-49
2023/02/28 06:43:25;;;;;;;;;29.75;26.75;;;;;-147.17;100.00;-15917.19;5012493;28;51132;-49
2023/02/28 06:45:57;;;;;;;;;34.75;30.75;;;;;-147.17;100.00;-15917.19;5014328;28;51071;-50
2023/02/28 06:48:23;;;;;;;;;31.50;27.50;;;;;-147.17;100.00;-15917.19;5030446;28;51863;-49
2023/02/28 06:50:48;;;;;;;;;33.00;31.75;;;;;-147.17;100.00;-15917.19;5030305;28;51876;-47
2023/02/28 06:53:14;;;;;;;;;32.00;29.50;;;;;-147.17;100.00;-15917.19;4997081;28;51131;-50
2023/02/28 06:55:40;;;;;;;;;37.50;33.50;;;;;-147.17;100.00;-15917.19;5026623;28;51113;-47
2023/02/28 06:58:14;;;;;;;;;35.00;32.00;;;;;-147.17;100.00;-15917.19;5010984;28;53295;-48
2023/02/28 07:00:43;;;;;;;;;37.25;31.00;;;;;-147.17;100.00;-15917.19;5015393;28;51054;-49
2023/02/28 07:03:09;;;;;;;;;32.75;31.25;;;;;-147.17;100.00;-15917.19;5019047;28;51392;-48
2023/02/28 07:05:36;;;;;;;;;37.75;32.75;;;;;-147.17;100.00;-15917.19;5021919;28;52810;-49
2023/02/28 07:08:03;;;;;;;;;34.50;31.75;;;;;-147.17;100.00;-15917.19;5020426;28;51166;-47
2023/02/28 07:10:29;;;;;;;;;45.75;36.75;;;;;-147.17;100.00;-15917.19;5018912;28;51159;-48
2023/02/28 07:12:54;;;;;;;;;36.00;30.75;;;;;-147.17;100.00;-15917.19;5008852;28;51152;-55
2023/02/28 07:15:19;;;;;;;;;36.25;34.00;;;;;-147.17;100.00;-15917.19;5022994;28;51073;-50
2023/02/28 07:17:45;;;;;;;;;40.00;35.00;;;;;-147.17;100.00;-15917.19;5017591;28;51731;-48
2023/02/28 07:20:14;;;;;;;;;40.50;34.00;;;;;-147.17;100.00;-15917.19;5025105;28;51307;-47
2023/02/28 07:22:39;;;;;;;;;38.00;36.75;;;;;-147.17;100.00;-15917.19;5015109;28;51066;-47
2023/02/28 07:25:06;;;;;;;;;34.00;31.75;;;;;-147.17;100.00;-15917.19;5017347;28;51284;-47
2023/02/28 07:27:31;;;;;;;;;42.25;41.25;;;;;-147.17;100.00;-15917.19;5026196;28;51731;-49
2023/02/28 07:29:56;;;;;;;;;34.00;32.75;;;;;-147.17;100.00;-15917.19;5031919;28;52125;-48
2023/02/28 07:32:22;;;;;;;;;35.25;32.25;;;;;-147.17;100.00;-15917.19;5031368;28;51283;-47
2023/02/28 07:34:48;;;;;;;;;36.75;36.00;;;;;-147.17;100.00;-15917.19;5021368;28;52197;-47
2023/02/28 07:37:14;;;;;;;;;36.50;34.25;;;;;-147.17;100.00;-15917.19;5020293;28;52031;-49
2023/02/28 07:39:42;;;;;;;;;38.50;35.50;;;;;-147.17;100.00;-15917.19;5029458;28;51043;-50
2023/02/28 07:42:11;;;;;;;;;19.75;17.75;;;;;-147.17;100.00;-15917.19;5013031;28;51141;-50
2023/02/28 07:44:40;;;;;;;;;42.50;39.75;;;;;-147.17;100.00;-15917.19;5031371;28;51353;-48
2023/02/28 07:47:14;;;;;;;;;43.00;41.00;;;;;-147.17;100.00;-15917.19;5028030;28;51086;-49
2023/02/28 07:49:39;;;;;;;;;35.00;32.00;;;;;-147.17;100.00;-15917.19;5016676;28;51006;-48
2023/02/28 07:52:06;;;;;;;;;35.00;32.75;;;;;-147.17;100.00;-15917.19;5021302;28;51338;-48
2023/02/28 07:54:33;;;;;;;;;37.50;36.00;;;;;-147.17;100.00;-15917.19;5034136;28;50896;-49
2023/02/28 07:56:59;;;;;;;;;36.25;34.00;;;;;-147.17;100.00;-15917.19;5034875;28;51928;-50
2023/02/28 07:59:24;;;;;;;;;38.75;35.50;;;;;-147.17;100.00;-15917.19;5027780;28;51195;-49
2023/02/28 08:01:50;;;;;;;;;36.50;33.75;;;;;-147.17;100.00;-15917.19;5034714;28;51023;-48
2023/02/28 08:04:17;;;;;;;;;34.25;32.00;;;;;-147.17;100.00;-15917.19;5017633;28;51706;-50
2023/02/28 08:06:42;;;;;;;;;48.25;40.75;;;;;-147.17;100.00;-15917.19;5018218;28;51355;-48
2023/02/28 08:09:08;;;;;;;;;29.50;27.75;;;;;-147.17;100.00;-13685.63;5020680;28;51114;-50
2023/02/28 08:11:33;;;;;;;;;38.75;37.25;;;;;-147.17;100.00;-10958.19;5018189;28;51191;-47
2023/02/28 08:13:59;;;;;;;;;39.50;36.00;;;;;-147.17;100.00;-12446.13;5003346;28;51235;-48
2023/02/28 08:16:24;;;;;;;;;48.50;41.00;;;;;-147.17;100.00;-12198.19;5027891;28;51335;-50
2023/02/28 08:18:51;;;;;;;;;10.00;6.75;;;;;-147.17;100.00;-9469.69;5020163;28;51094;-48
2023/02/28 08:21:16;;;;;;;;;39.25;38.25;;;;;-147.17;100.00;-6987.56;5025782;28;51078;-50
2023/02/28 08:23:42;;;;;;;;;37.50;35.50;;;;;-147.17;100.00;-3509.84;5018070;28;51399;-48
2023/02/28 08:26:07;;;;;;;;;34.50;34.25;;;;;-147.17;100.00;-277.75;5031426;28;51218;-50
2023/02/28 08:28:33;;;;;;;;;39.00;35.75;;;;;-147.17;100.00;3703.94;5015203;28;51211;-50
2023/02/28 08:30:58;;;;;;;;;42.75;38.00;;;;;-147.17;100.00;5198.13;5025812;28;50940;-49
2023/02/28 08:33:25;;;;;;;;;37.50;35.25;;;;;-147.17;100.00;5447.22;5019997;28;51233;-49
2023/02/28 08:35:54;;;;;;;;;40.75;37.50;;;;;-147.17;100.00;8686.84;5017302;28;51942;-50
2023/02/28 08:38:20;;;;;;;;;34.50;34.25;;;;;-147.17;100.00;12927.34;5025249;28;51154;-49
2023/02/28 08:40:45;;;;;;;;;36.00;35.00;;;;;-147.17;100.00;20171.88;5022943;28;51361;-50
2023/02/28 08:43:10;;;;;;;;;29.75;27.50;;;;;-147.17;100.00;21422.31;5018090;28;51247;-49
2023/02/28 08:45:36;;;;;;;;;41.00;37.00;;;;;-147.17;100.00;21922.59;5030459;28;51662;-50
2023/02/28 08:48:01;;;;;;;;;37.75;33.75;;;;;-147.17;100.00;24424.97;5026917;28;51079;-52
2023/02/28 08:50:27;;;;;;;;;37.00;34.25;;;;;-147.17;100.00;28361.63;5013947;28;51434;-49
2023/02/28 08:52:52;;;;;;;;;35.75;34.25;;;;;-147.17;100.00;30691.84;5024336;28;51283;-49
2023/02/28 08:55:17;;;;;;;;;42.00;38.25;;;;;-147.17;100.00;30770.19;5004120;28;51765;-51
2023/02/28 08:57:43;;;;;;;;;27.75;26.75;;;;;-147.17;100.00;32553.09;5017580;28;51171;-51
2023/02/28 09:00:13;;;;;;;;;39.75;36.00;;;;;-147.17;100.00;34109.38;5031002;28;51036;-49
2023/02/28 09:02:39;;;;;;;;;34.75;33.50;;;;;-147.17;100.00;36876.53;5020910;28;51088;-49
2023/02/28 09:05:04;;;;;;;;;40.75;36.25;;;;;-147.17;100.00;37557.38;5015361;28;52019;-49
2023/02/28 09:07:30;;;;;;;;;33.50;32.00;;;;;-147.17;100.00;38573.91;5023031;28;52118;-49
2023/02/28 09:09:55;;;;;;;;;35.75;32.50;;;;;-147.17;100.00;38542.50;5020319;28;51139;-51
2023/02/28 09:12:25;;;;;;;;;36.50;32.75;;;;;-147.17;100.00;39535.72;5025663;28;51177;-52
2023/02/28 09:14:51;;;;;;;;;36.25;32.75;;;;;-147.17;100.00;39447.38;5023857;28;51003;-52
2023/02/28 09:17:17;;;;;;;;;30.75;30.00;;;;;-147.17;100.00;39785.06;5020362;28;51084;-51
2023/02/28 09:19:43;;;;;;;;;35.00;32.25;;;;;-147.17;100.00;40144.34;5019454;28;51132;-50
2023/02/28 09:22:09;;;;;;;;;33.25;30.75;;;;;-147.17;100.00;40988.75;5023829;28;51298;-48
2023/02/28 09:24:36;;;;;;;;;34.25;32.00;;;;;-147.17;100.00;41324.56;5029272;28;51657;-48
2023/02/28 09:27:02;;;;;;;;;34.25;32.75;;;;;-147.17;100.00;41460.09;5016192;28;51403;-50
2023/02/28 09:29:27;;;;;;;;;33.25;31.50;;;;;-147.17;100.00;41880.44;5025339;28;51263;-50
2023/02/28 09:31:52;;;;;;;;;37.75;35.25;;;;;-147.17;100.00;42436.38;5026004;28;51341;-50
2023/02/28 09:34:18;;;;;;;;;32.00;30.50;;;;;-147.17;100.00;43326.47;5018319;28;50965;-51
2023/02/28 09:36:43;;;;;;;;;35.75;32.50;;;;;-147.17;100.00;42890.25;5032405;28;51178;-48
2023/02/28 09:39:09;;;;;;;;;30.25;28.75;;;;;-147.17;100.00;42843.09;5016217;28;51073;-49
2023/02/28 09:41:50;;;;;;;;;33.25;32.00;;;;;-147.17;100.00;42383.34;5012266;28;51246;-50
2023/02/28 09:44:24;;;;;;;;;33.75;33.00;;;;;-147.17;100.00;41797.94;5031365;28;52781;-50
2023/02/28 09:46:56;;;;;;;;;33.50;32.00;;;;;-147.17;100.00;42092.59;5026689;28;51121;-50
2023/02/28 09:49:34;;;;;;;;;41.00;34.50;;;;;-147.17;100.00;42383.34;5022817;28;51219;-49
2023/02/28 09:52:04;;;;;;;;;26.75;26.75;;;;;-147.17;100.00;42177.06;5024593;28;51237;-51
2023/02/28 09:54:33;;;;;;;;;31.00;28.50;;;;;-147.17;100.00;42059.19;5022706;28;51051;-48
2023/02/28 09:57:04;;;;;;;;;34.25;31.00;;;;;-147.17;100.00;41994.38;5017426;28;51040;-50
2023/02/28 09:59:50;;;;;;;;;23.50;22.25;;;;;-147.17;100.00;43145.69;5028294;28;51308;-49
2023/02/28 10:02:34;;;;;;;;;27.00;26.50;;;;;-147.17;100.00;43499.38;5022854;28;50990;-50
2023/02/28 10:05:08;;;;;;;;;26.50;25.50;;;;;-147.17;100.00;43984.81;5017201;28;51828;-50
2023/02/28 10:07:42;;;;;;;;;31.25;29.50;;;;;-147.17;100.00;44067.34;4997194;28;51227;-50
2023/02/28 10:10:39;;;;;;;;;26.50;24.75;;;;;-147.17;100.00;43405.06;5028284;28;51299;-50
2023/02/28 10:13:24;;;;;;;;;28.75;26.75;;;;;-147.17;100.00;43188.91;5028811;28;51378;-50
2023/02/28 10:15:55;;;;;;;;;28.00;26.50;;;;;-147.17;100.00;43550.47;5022883;28;51012;-49
2023/02/28 10:18:38;;;;;;;;;31.75;30.00;;;;;-147.17;100.00;43693.94;5028182;28;51199;-49
2023/02/28 10:21:04;;;;;;;;;27.50;26.00;;;;;-147.17;100.00;44381.84;5021790;28;51128;-49
2023/02/28 10:23:34;;;;;;;;;29.50;28.00;;;;;-147.17;100.00;45004.97;5005803;28;51201;-51
2023/02/28 10:26:10;;;;;;;;;25.50;24.50;;;;;-147.17;100.00;45221.22;5015525;28;52735;-49
2023/02/28 10:28:35;;;;;;;;;27.25;26.25;;;;;-147.17;100.00;44902.75;5025973;28;51377;-48
2023/02/28 10:31:02;;;;;;;;;25.50;24.50;;;;;-147.17;100.00;44554.81;5012826;28;51310;-49
2023/02/28 10:33:31;;;;;;;;;24.00;23.50;;;;;-147.17;100.00;44322.88;5005442;28;51612;-49
2023/02/28 10:35:57;;;;;;;;;21.00;20.25;;;;;-147.17;100.00;44839.84;5006147;28;52635;-50
2023/02/28 10:38:31;;;;;;;;;22.75;22.75;;;;;-147.17;100.00;44706.16;5008652;28;51080;-50
2023/02/28 10:41:09;;;;;;;;;24.00;24.00;;;;;-147.17;100.00;44833.94;5006017;28;50956;-49
2023/02/28 10:43:37;;;;;;;;;27.25;27.25;;;;;-147.17;100.00;44680.63;5015879;28;51236;-48
2023/02/28 10:46:10;;;;;;;;;19.00;19.00;;;;;-147.17;100.00;44427.03;5011286;28;51919;-50
2023/02/28 10:48:42;;;;;;;;;19.00;18.00;;;;;-147.17;100.00;44782.84;5021455;28;51081;-49
2023/02/28 10:51:14;;;;;;;;;19.00;19.00;;;;;-147.17;100.00;44938.13;5026401;28;51194;-51
2023/02/28 10:53:51;;;;;;;;;24.25;23.00;;;;;-147.17;100.00;45217.28;5021559;28;51087;-49
2023/02/28 10:56:21;;;;;;;;;22.25;21.75;;;;;-147.17;100.00;44965.66;5016611;28;51959;-48
2023/02/28 10:59:26;;;;;;;;;18.00;18.00;;;;;-147.17;100.00;45323.47;5012960;28;51739;-48